Terminal Aerodrome Forecast
Issued by NWS

Home | Current Version | Previous Version | Text Only | Print | Product List | Glossary On
Versions: 1 2 3 4 5 6 7 8 9 10 11 12 13 14 15
246
FTUS44 KEPZ 211924 AAA
TAFTCS
TAF AMD
KTCS 211924Z 2119/2218 29020G30KT P6SM FEW050 SCT080
     FM220100 30022G29KT P6SM FEW060
     FM220900 30011KT P6SM SKC
     FM221200 32009KT P6SM FEW150=

USA.gov is the U.S. government's official web portal to all federal, state and local government web resources and services.